Time;durP1;ratioP1;P1;durP2;ratioP2;P2;SDS_P1;SDS_P2;PMS_P1;PMS_P2;Temp;Humidity;BMP_temperature;BMP_pressure;BME280_temperature;BME280_humidity;BME280_pressure;Samples;Min_cycle;Max_cycle;Signal;HPM_P1;HPM_P2
2022/01/27 00:01:16;;;;;;;6.55;4.00;;;;;;;-4.09;64.96;98920.47;5034478;28;20056;-60
2022/01/27 00:03:51;;;;;;;7.93;4.20;;;;;;;-4.16;65.13;98922.88;5034741;28;20576;-59
2022/01/27 00:06:17;;;;;;;9.43;5.25;;;;;;;-4.12;65.28;98923.38;5035217;28;20494;-60
2022/01/27 00:11:14;;;;;;;10.10;5.65;;;;;;;-4.03;65.22;98911.28;5035196;28;20049;-59
2022/01/27 00:13:49;;;;;;;7.35;4.82;;;;;;;-4.00;65.04;98916.97;5032693;28;20034;-60
2022/01/27 00:16:20;;;;;;;6.70;4.50;;;;;;;-4.00;64.71;98909.22;5035061;28;20049;-59
2022/01/27 00:18:47;;;;;;;5.90;4.45;;;;;;;-3.98;65.40;98909.84;5017197;28;20049;-59
2022/01/27 00:21:14;;;;;;;6.95;4.40;;;;;;;-3.97;64.84;98906.31;5034158;28;20049;-61
2022/01/27 00:23:41;;;;;;;7.57;4.25;;;;;;;-3.91;65.36;98904.88;5033837;28;20076;-59
2022/01/27 00:26:07;;;;;;;10.45;5.47;;;;;;;-3.98;65.33;98901.28;5034878;28;20041;-59
2022/01/27 00:28:33;;;;;;;11.20;5.95;;;;;;;-3.98;65.64;98891.72;5016639;28;20502;-60
2022/01/27 00:30:59;;;;;;;13.38;6.05;;;;;;;-3.98;65.93;98894.31;5033312;28;20068;-59
2022/01/27 00:33:24;;;;;;;7.82;5.35;;;;;;;-4.00;65.66;98893.69;5033984;28;20137;-59
2022/01/27 00:35:51;;;;;;;7.55;4.90;;;;;;;-4.00;65.65;98892.84;5033737;28;20045;-58
2022/01/27 00:38:16;;;;;;;8.52;4.93;;;;;;;-3.97;65.23;98897.69;5032720;28;20396;-58
2022/01/27 00:40:43;;;;;;;8.48;5.05;;;;;;;-3.95;65.56;98900.97;5032676;28;20060;-59
2022/01/27 00:43:08;;;;;;;7.93;4.88;;;;;;;-3.99;65.86;98894.47;5033973;28;20052;-59
2022/01/27 00:45:35;;;;;;;8.45;5.53;;;;;;;-4.02;66.21;98894.78;5032508;28;20049;-59
2022/01/27 00:48:04;;;;;;;9.85;5.68;;;;;;;-4.00;65.92;98888.50;5034145;28;20083;-59
2022/01/27 00:50:31;;;;;;;8.50;5.30;;;;;;;-3.99;65.78;98887.53;5032847;28;20049;-59
2022/01/27 00:52:59;;;;;;;10.93;5.60;;;;;;;-4.00;66.00;98883.31;5033802;28;20106;-60
2022/01/27 00:55:27;;;;;;;9.57;5.82;;;;;;;-3.94;65.88;98881.84;5032652;28;20064;-59
2022/01/27 01:00:26;;;;;;;9.63;5.63;;;;;;;-3.97;65.86;98884.75;5032522;28;20093;-59
2022/01/27 01:03:01;;;;;;;11.63;5.35;;;;;;;-3.97;65.98;98890.78;5016060;28;20094;-59
2022/01/27 01:16:49;;;;;;;8.73;4.72;;;;;;;-4.13;66.37;98878.56;5034031;28;20037;-59
2022/01/27 01:30:06;;;;;;;8.75;4.75;;;;;;;-3.92;63.68;98878.16;5033386;28;20049;-59
2022/01/27 01:32:54;;;;;;;4.93;3.80;;;;;;;-4.01;63.43;98870.50;5031727;28;20042;-59
2022/01/27 01:35:46;;;;;;;7.07;3.33;;;;;;;-4.18;63.27;98885.16;5031774;28;20577;-60
2022/01/27 01:38:20;;;;;;;6.20;4.00;;;;;;;-4.07;64.16;98881.50;5033066;28;20069;-59
2022/01/27 01:40:48;;;;;;;7.07;3.55;;;;;;;-3.99;63.31;98871.19;5031999;28;20077;-59
2022/01/27 01:43:15;;;;;;;6.13;3.80;;;;;;;-3.90;62.87;98868.44;5031832;28;20041;-60
2022/01/27 01:45:41;;;;;;;6.65;3.95;;;;;;;-3.94;62.75;98872.34;5033230;28;20519;-60
2022/01/27 01:48:06;;;;;;;6.25;3.22;;;;;;;-3.99;62.08;98864.22;5031688;28;20049;-57
2022/01/27 01:50:32;;;;;;;5.10;3.17;;;;;;;-3.94;62.75;98861.97;5031697;28;20482;-60
2022/01/27 01:52:58;;;;;;;4.63;3.30;;;;;;;-3.86;62.50;98866.34;5032779;28;20110;-58
2022/01/27 01:55:24;;;;;;;3.92;3.17;;;;;;;-3.81;61.84;98863.31;5031876;28;20041;-59
2022/01/27 01:57:51;;;;;;;6.28;3.35;;;;;;;-3.83;61.66;98863.44;5031081;28;20048;-60
2022/01/27 02:00:17;;;;;;;7.03;3.50;;;;;;;-3.82;60.85;98853.88;5032572;28;20045;-58
2022/01/27 02:02:43;;;;;;;4.70;3.17;;;;;;;-3.76;62.22;98855.88;5032794;28;20087;-59
2022/01/27 02:05:10;;;;;;;5.45;3.17;;;;;;;-3.99;61.11;98855.66;5032839;28;20069;-60
2022/01/27 02:18:20;;;;;;;5.38;3.83;;;;;;;-4.01;61.50;98842.03;5031314;28;20037;-59
2022/01/27 02:20:45;;;;;;;6.53;3.78;;;;;;;-3.85;61.52;98851.63;5032538;28;20056;-60
2022/01/27 02:23:11;;;;;;;5.55;3.20;;;;;;;-3.81;61.56;98847.75;5031687;28;20060;-57
2022/01/27 02:25:37;;;;;;;5.20;3.50;;;;;;;-3.79;61.10;98851.00;5032419;28;20037;-59
2022/01/27 02:28:03;;;;;;;5.07;3.28;;;;;;;-3.79;61.09;98853.59;5031147;28;20095;-57
2022/01/27 02:30:30;;;;;;;7.80;3.47;;;;;;;-3.85;61.60;98842.09;5032378;28;20617;-59
2022/01/27 02:32:55;;;;;;;7.05;3.38;;;;;;;-3.92;62.19;98836.72;5031743;28;20045;-60
2022/01/27 02:35:27;;;;;;;6.65;3.60;;;;;;;-3.82;62.19;98843.53;5030611;28;20454;-59
2022/01/27 02:37:53;;;;;;;5.40;3.88;;;;;;;-3.95;61.31;98842.22;5031911;28;20124;-60
2022/01/27 02:40:34;;;;;;;7.60;3.75;;;;;;;-3.89;61.72;98848.53;5032258;28;20049;-61
2022/01/27 02:43:01;;;;;;;;;;;;;;;-3.84;61.42;98851.47;5030963;28;20041;-60
2022/01/27 02:45:31;;;;;;;6.10;3.42;;;;;;;-3.70;60.63;98852.66;5031926;28;19928;-60
2022/01/27 02:47:57;;;;;;;;;;;;;;;-3.79;60.89;98848.44;5031273;28;20088;-59
2022/01/27 02:50:23;;;;;;;6.03;3.40;;;;;;;-3.89;61.67;98853.72;5014097;28;19937;-59
2022/01/27 02:52:48;;;;;;;5.90;3.45;;;;;;;-3.83;61.82;98849.69;5030268;28;20126;-60
2022/01/27 02:55:14;;;;;;;7.13;3.45;;;;;;;-3.96;61.08;98844.97;5030670;28;20045;-62
2022/01/27 02:57:40;;;;;;;5.35;3.45;;;;;;;-4.05;61.90;98840.75;5031557;28;20068;-59
2022/01/27 03:00:07;;;;;;;7.45;3.80;;;;;;;-4.01;61.91;98845.44;5031521;28;20419;-61
2022/01/27 03:02:34;;;;;;;5.32;3.40;;;;;;;-4.01;61.28;98845.44;5030433;28;20041;-57
2022/01/27 03:05:00;;;;;;;9.15;4.07;;;;;;;-3.94;62.87;98846.44;5031551;28;20527;-60
2022/01/27 03:07:26;;;;;;;5.35;3.67;;;;;;;-3.81;61.60;98840.78;5031704;28;20068;-59
2022/01/27 03:09:54;;;;;;;8.25;3.95;;;;;;;-3.77;61.37;98841.28;5029570;28;20050;-59
2022/01/27 03:12:23;;;;;;;6.50;4.18;;;;;;;-3.78;61.98;98844.84;5031715;28;20164;-60
2022/01/27 03:14:49;;;;;;;7.13;4.00;;;;;;;-3.79;62.53;98854.41;5031662;28;20125;-59
2022/01/27 03:17:15;;;;;;;9.18;4.28;;;;;;;-3.82;62.22;98852.13;5031642;28;20079;-60
2022/01/27 03:19:41;;;;;;;5.28;3.83;;;;;;;-3.88;61.49;98845.00;5030117;28;20054;-61
2022/01/27 03:22:08;;;;;;;7.30;3.88;;;;;;;-3.79;62.17;98844.06;5030926;28;20037;-59
2022/01/27 03:24:35;;;;;;;5.38;4.00;;;;;;;-3.72;61.71;98839.03;5030206;28;20046;-61
2022/01/27 03:27:01;;;;;;;11.55;4.97;;;;;;;-3.86;61.52;98837.06;5029821;28;20424;-59
2022/01/27 03:29:27;;;;;;;8.98;4.13;;;;;;;-3.93;62.07;98842.06;5031282;28;20049;-60
2022/01/27 03:31:54;;;;;;;9.95;4.57;;;;;;;-3.96;61.75;98838.00;5029725;28;20037;-60
2022/01/27 03:34:21;;;;;;;7.45;4.00;;;;;;;-3.94;63.04;98824.91;5031505;28;20099;-59
2022/01/27 03:36:46;;;;;;;9.07;4.40;;;;;;;-3.89;62.72;98826.03;5031223;28;20063;-61
2022/01/27 03:39:16;;;;;;;6.63;3.42;;;;;;;-3.94;62.23;98835.25;5031241;28;20176;-58
2022/01/27 03:41:49;;;;;;;6.97;3.65;;;;;;;-3.98;61.84;98829.59;5030490;28;20038;-60
2022/01/27 03:44:15;;;;;;;5.72;3.63;;;;;;;-3.96;62.49;98832.03;5029990;28;20042;-61
2022/01/27 03:46:41;;;;;;;6.78;3.70;;;;;;;-4.17;62.51;98827.28;5030012;28;20107;-61
2022/01/27 03:49:07;;;;;;;6.07;3.53;;;;;;;-4.21;62.93;98823.34;5029862;28;20423;-61
2022/01/27 03:51:33;;;;;;;6.72;4.00;;;;;;;-4.21;62.26;98818.19;5030462;28;20132;-62
2022/01/27 03:53:58;;;;;;;10.65;4.20;;;;;;;-4.15;63.34;98813.22;5030435;28;20124;-60
2022/01/27 03:56:24;;;;;;;7.45;4.32;;;;;;;-4.11;62.79;98819.69;5030317;28;20498;-62
2022/01/27 03:58:50;;;;;;;6.75;3.65;;;;;;;-4.06;62.65;98814.03;5030712;28;20414;-60
2022/01/27 04:01:17;;;;;;;7.43;3.38;;;;;;;-3.97;62.23;98822.63;5030609;28;20041;-62
2022/01/27 04:03:44;;;;;;;6.75;3.90;;;;;;;-4.13;62.87;98813.84;5029564;28;20080;-61
2022/01/27 04:06:10;;;;;;;7.38;3.50;;;;;;;-4.07;62.64;98817.59;5031122;28;20491;-61
2022/01/27 04:08:37;;;;;;;7.57;4.03;;;;;;;-4.19;62.85;98811.09;5029713;28;20044;-62
2022/01/27 04:11:08;;;;;;;5.30;3.55;;;;;;;-4.18;62.98;98813.50;5031190;28;20414;-62
2022/01/27 04:13:35;;;;;;;4.45;3.03;;;;;;;-4.18;62.80;98818.69;5029614;28;20060;-61
2022/01/27 04:16:01;;;;;;;7.60;4.10;;;;;;;-4.12;62.90;98823.25;5029689;28;20041;-60
2022/01/27 04:18:27;;;;;;;7.55;3.47;;;;;;;-4.17;62.66;98815.13;5029338;28;20099;-59
2022/01/27 04:20:53;;;;;;;7.07;3.50;;;;;;;-4.10;62.00;98817.91;5032807;28;20072;-60
2022/01/27 04:23:19;;;;;;;13.85;6.15;;;;;;;-4.06;62.46;98816.59;5032665;28;20087;-61
2022/01/27 04:25:46;;;;;;;9.02;4.63;;;;;;;-4.16;61.89;98819.34;5034494;28;20045;-59
2022/01/27 04:28:15;;;;;;;5.95;3.40;;;;;;;-4.23;62.61;98814.97;5034256;28;20534;-60
2022/01/27 04:30:41;;;;;;;8.98;3.65;;;;;;;-4.16;62.37;98803.00;5034483;28;20071;-61
2022/01/27 04:33:07;;;;;;;5.60;3.13;;;;;;;-4.18;61.98;98797.97;5034248;28;20033;-61
2022/01/27 04:35:37;;;;;;;7.90;3.42;;;;;;;-4.30;62.13;98801.81;5032657;28;20466;-61
2022/01/27 04:48:20;;;;;;;4.78;3.20;;;;;;;-4.24;61.75;98798.59;5029335;28;20042;-61
2022/01/27 04:50:46;;;;;;;9.45;3.60;;;;;;;-4.39;61.68;98792.41;5022797;28;20041;-60
2022/01/27 04:53:19;;;;;;;6.78;3.55;;;;;;;-4.27;62.28;98792.94;5016138;28;20052;-61
2022/01/27 04:55:45;;;;;;;6.97;3.20;;;;;;;-4.26;61.29;98792.78;5032702;28;20041;-58
2022/01/27 04:58:15;;;;;;;5.65;3.40;;;;;;;-4.42;61.76;98795.31;5033880;28;20414;-60
2022/01/27 05:00:42;;;;;;;7.82;3.50;;;;;;;-4.43;62.51;98791.91;5031565;28;20649;-60
2022/01/27 05:03:31;;;;;;;5.63;2.92;;;;;;;-4.45;62.51;98790.44;5033903;28;20136;-61
2022/01/27 05:05:57;;;;;;;6.22;3.05;;;;;;;-4.50;61.62;98790.09;5012588;28;20479;-61
2022/01/27 05:08:24;;;;;;;5.07;2.90;;;;;;;-4.49;61.93;98795.13;5013500;28;20141;-61
2022/01/27 05:10:58;;;;;;;7.45;3.72;;;;;;;-4.46;61.62;98783.66;5028910;28;20053;-62
2022/01/27 05:13:26;;;;;;;5.90;3.05;;;;;;;-4.50;61.37;98787.50;5012370;28;20092;-60
2022/01/27 05:15:53;;;;;;;6.32;3.10;;;;;;;-4.60;61.39;98787.63;5014225;28;20042;-61
2022/01/27 05:18:20;;;;;;;5.70;2.72;;;;;;;-4.58;61.59;98794.28;5012325;28;20423;-62
2022/01/27 05:20:45;;;;;;;5.97;3.17;;;;;;;-4.65;60.50;98790.69;5021122;28;20132;-61
2022/01/27 05:23:11;;;;;;;4.53;2.75;;;;;;;-4.60;60.66;98790.22;5032779;28;20133;-62
2022/01/27 05:25:37;;;;;;;5.55;2.75;;;;;;;-4.54;60.91;98794.78;5034982;28;20072;-63
2022/01/27 05:28:03;;;;;;;5.00;2.60;;;;;;;-4.57;59.61;98793.31;5034663;28;20046;-62
2022/01/27 05:30:29;;;;;;;4.15;2.72;;;;;;;-4.57;60.19;98798.47;5034509;28;20132;-60
2022/01/27 05:32:55;;;;;;;5.22;2.90;;;;;;;-4.62;60.60;98807.66;5032120;28;20104;-60
2022/01/27 05:35:21;;;;;;;6.50;2.83;;;;;;;-4.60;60.17;98798.78;5016190;28;20557;-60
2022/01/27 05:37:47;;;;;;;6.13;3.28;;;;;;;-4.58;59.74;98796.88;5033230;28;20090;-62
2022/01/27 05:40:13;;;;;;;5.22;2.97;;;;;;;-4.60;59.62;98796.19;5033251;28;20414;-60
2022/01/27 05:42:38;;;;;;;6.20;2.58;;;;;;;-4.57;60.20;98789.91;5032316;28;20102;-61
2022/01/27 05:45:04;;;;;;;5.75;2.42;;;;;;;-4.51;59.85;98791.06;5033070;28;20398;-60
2022/01/27 05:47:30;;;;;;;5.13;2.50;;;;;;;-4.53;59.45;98786.03;5031281;28;20038;-60
2022/01/27 05:49:56;;;;;;;3.83;2.63;;;;;;;-4.50;59.04;98785.75;5031393;28;20045;-60
2022/01/27 05:52:22;;;;;;;3.55;2.70;;;;;;;-4.44;59.57;98789.47;5032666;28;20084;-61
2022/01/27 05:54:48;;;;;;;4.82;2.60;;;;;;;-4.43;60.18;98781.56;5030626;28;20045;-60
2022/01/27 05:57:14;;;;;;;4.05;2.70;;;;;;;-4.36;59.38;98784.34;5015232;28;20094;-60
2022/01/27 05:59:40;;;;;;;3.20;2.40;;;;;;;-4.39;59.27;98782.88;5032682;28;20449;-61
2022/01/27 06:02:06;;;;;;;3.28;2.00;;;;;;;-4.32;58.35;98788.25;5030641;28;20637;-60
2022/01/27 06:04:32;;;;;;;2.75;1.83;;;;;;;-4.38;57.86;98781.13;5032526;28;20053;-60
2022/01/27 06:06:57;;;;;;;3.45;2.03;;;;;;;-4.38;58.95;98775.94;5031283;28;20037;-59
2022/01/27 06:09:23;;;;;;;2.50;2.17;;;;;;;-4.39;58.88;98776.88;5028654;28;20050;-61
2022/01/27 06:11:50;;;;;;;3.55;2.17;;;;;;;-4.34;58.33;98772.88;5030861;28;20498;-62
2022/01/27 06:14:16;;;;;;;5.63;2.60;;;;;;;-4.24;58.33;98774.50;5014549;28;20042;-58
2022/01/27 06:16:44;;;;;;;3.17;2.22;;;;;;;-4.21;58.10;98763.84;5012468;28;20056;-60
2022/01/27 06:19:10;;;;;;;4.78;2.30;;;;;;;-4.18;57.26;98766.09;5012782;28;20045;-59
2022/01/27 06:21:36;;;;;;;3.35;2.20;;;;;;;-4.45;57.38;98765.38;5016228;28;20523;-60
2022/01/27 06:24:02;;;;;;;2.70;2.10;;;;;;;-4.49;58.18;98763.28;5028902;28;20494;-59
2022/01/27 06:26:29;;;;;;;5.35;2.42;;;;;;;-4.40;57.97;98762.34;5029412;28;20087;-60
2022/01/27 06:28:56;;;;;;;3.05;2.10;;;;;;;-4.42;58.04;98759.09;5027352;28;20419;-60
2022/01/27 06:31:22;;;;;;;3.25;2.25;;;;;;;-4.37;59.52;98755.06;5027165;28;20096;-61
2022/01/27 06:33:48;;;;;;;4.78;2.60;;;;;;;-4.46;57.53;98755.22;5027715;28;20040;-59
2022/01/27 06:36:14;;;;;;;3.63;2.72;;;;;;;-4.41;58.06;98752.94;5026503;28;20144;-61
2022/01/27 06:38:39;;;;;;;5.05;2.45;;;;;;;-4.37;57.15;98755.06;5025175;28;20112;-57
2022/01/27 06:41:05;;;;;;;3.88;2.78;;;;;;;-4.34;58.11;98753.94;5032752;28;20049;-60
2022/01/27 06:43:31;;;;;;;2.38;2.00;;;;;;;-4.38;57.71;98750.06;5032335;28;20498;-59
2022/01/27 06:45:57;;;;;;;3.03;2.05;;;;;;;-4.41;57.45;98758.94;5030426;28;20388;-59
2022/01/27 06:48:22;;;;;;;2.78;2.28;;;;;;;-4.44;57.83;98753.25;5029351;28;20038;-59
2022/01/27 06:50:53;;;;;;;2.35;1.90;;;;;;;-4.27;58.09;98756.72;5029777;28;20049;-59
2022/01/27 06:53:19;;;;;;;3.75;2.20;;;;;;;-4.28;57.85;98750.72;5027644;28;20525;-63
2022/01/27 06:55:45;;;;;;;3.72;2.15;;;;;;;-4.26;58.06;98737.66;5011526;28;20045;-61
2022/01/27 06:58:11;;;;;;;2.78;2.20;;;;;;;-4.18;57.69;98743.63;5029238;28;20120;-59
2022/01/27 07:00:36;;;;;;;2.75;2.00;;;;;;;-4.22;58.19;98741.53;5030231;28;20053;-61
2022/01/27 07:03:02;;;;;;;3.65;2.55;;;;;;;-4.02;58.61;98739.47;5027906;28;20379;-62
2022/01/27 07:05:31;;;;;;;4.47;2.45;;;;;;;-4.02;57.01;98732.50;5029539;28;20049;-61
2022/01/27 07:07:57;;;;;;;4.25;2.45;;;;;;;-4.00;56.81;98740.94;5030225;28;20034;-62
2022/01/27 07:10:22;;;;;;;4.60;3.35;;;;;;;-3.92;57.35;98740.09;5030454;28;20106;-60
2022/01/27 07:12:48;;;;;;;5.35;3.03;;;;;;;-3.93;56.76;98748.84;5029678;28;20041;-61
2022/01/27 07:15:14;;;;;;;4.13;2.58;;;;;;;-3.87;57.80;98748.22;5027237;28;20049;-63
2022/01/27 07:17:40;;;;;;;3.28;2.28;;;;;;;-3.77;56.76;98742.88;5028597;28;20136;-61
2022/01/27 07:20:07;;;;;;;4.15;2.38;;;;;;;-3.87;56.87;98748.22;5028296;28;20049;-61
2022/01/27 07:22:34;;;;;;;4.25;2.67;;;;;;;-3.94;57.03;98758.41;5028470;28;20137;-60
2022/01/27 07:25:00;;;;;;;3.58;2.55;;;;;;;-3.88;56.48;98757.75;5027860;28;20042;-61
2022/01/27 07:27:26;;;;;;;4.20;2.85;;;;;;;-3.85;57.43;98751.47;5028021;28;20042;-59
2022/01/27 07:29:51;;;;;;;5.20;3.03;;;;;;;-3.70;57.46;98756.81;5009145;28;20041;-60
2022/01/27 07:32:17;;;;;;;6.60;3.25;;;;;;;-3.69;55.90;98759.22;5027649;28;20040;-61
2022/01/27 07:34:43;;;;;;;3.67;2.63;;;;;;;-3.72;55.93;98750.97;5026364;28;20050;-62
2022/01/27 07:37:08;;;;;;;5.55;3.15;;;;;;;-3.65;55.84;98754.53;5025393;28;20052;-61
2022/01/27 07:39:34;;;;;;;3.83;2.63;;;;;;;-3.71;55.75;98747.41;5027330;28;20038;-61
2022/01/27 07:42:01;;;;;;;6.20;3.40;;;;;;;-3.89;56.85;98740.59;5027316;28;20144;-61
2022/01/27 07:44:27;;;;;;;5.00;2.90;;;;;;;-3.90;56.85;98743.34;5026772;28;20132;-60
2022/01/27 07:46:54;;;;;;;5.25;3.28;;;;;;;-3.78;56.13;98741.25;5027409;28;20037;-60
2022/01/27 07:49:19;;;;;;;3.72;2.88;;;;;;;-3.76;56.42;98747.91;5028947;28;20144;-60
2022/01/27 07:51:45;;;;;;;7.90;3.45;;;;;;;-3.68;56.15;98736.72;5027673;28;20120;-58
2022/01/27 07:54:11;;;;;;;7.40;3.70;;;;;;;-3.83;56.32;98738.34;5028203;28;20049;-59
2022/01/27 07:56:37;;;;;;;4.78;2.80;;;;;;;-3.58;55.74;98741.75;5030691;28;20052;-60
2022/01/27 07:59:03;;;;;;;5.07;3.13;;;;;;;-3.53;55.75;98744.66;5029564;28;20049;-61
2022/01/27 08:01:28;;;;;;;5.03;2.63;;;;;;;-3.44;55.49;98733.34;5032664;28;20152;-59
2022/01/27 08:03:54;;;;;;;5.72;3.05;;;;;;;-3.48;54.47;98725.06;5014207;28;20132;-57
2022/01/27 08:06:20;;;;;;;5.43;2.85;;;;;;;-3.26;54.21;98726.16;5032003;28;20046;-61
2022/01/27 08:08:46;;;;;;;4.22;3.25;;;;;;;-3.23;54.10;98722.44;5031640;28;20045;-59
2022/01/27 08:11:12;;;;;;;5.78;3.28;;;;;;;-3.27;54.33;98723.72;5033730;28;20583;-60
2022/01/27 08:13:37;;;;;;;5.85;3.03;;;;;;;-3.34;54.13;98723.59;5032688;28;20037;-61
2022/01/27 08:16:04;;;;;;;7.88;3.22;;;;;;;-3.23;54.62;98719.84;5033083;28;20045;-59
2022/01/27 08:18:30;;;;;;;5.60;3.67;;;;;;;-3.18;55.07;98714.16;5029777;28;20783;-60
2022/01/27 08:20:55;;;;;;;6.53;3.53;;;;;;;-2.99;54.53;98719.78;5030961;28;20045;-57
2022/01/27 08:23:21;;;;;;;6.30;3.50;;;;;;;-3.11;54.46;98725.50;5013348;28;20135;-59
2022/01/27 08:25:59;;;;;;;14.02;3.83;;;;;;;-3.08;54.91;98718.19;5031794;28;20077;-60
2022/01/27 08:28:35;;;;;;;4.95;3.28;;;;;;;-3.05;54.91;98710.09;5031707;28;20128;-61
2022/01/27 08:31:02;;;;;;;4.88;3.10;;;;;;;-3.18;53.64;98708.97;5033468;28;20111;-61
2022/01/27 08:33:29;;;;;;;4.30;2.92;;;;;;;-3.23;54.10;98712.06;5031331;28;20034;-59
2022/01/27 08:35:58;;;;;;;5.10;3.00;;;;;;;-3.29;54.70;98717.91;5030053;28;20060;-60
2022/01/27 08:38:25;;;;;;;4.38;2.60;;;;;;;-3.25;54.28;98712.22;5031824;28;20084;-61
2022/01/27 08:40:51;;;;;;;8.25;3.45;;;;;;;-3.13;54.55;98704.09;5032642;28;20135;-60
2022/01/27 08:43:17;;;;;;;4.05;3.05;;;;;;;-3.00;54.33;98701.78;5031762;28;20076;-61
2022/01/27 08:45:44;;;;;;;5.97;3.13;;;;;;;-3.13;53.52;98701.50;5031809;28;20158;-61
2022/01/27 08:48:13;;;;;;;5.72;3.10;;;;;;;-3.33;53.81;98699.28;5031079;28;20045;-61
2022/01/27 08:50:39;;;;;;;6.40;3.08;;;;;;;-3.27;54.95;98693.44;5029439;28;20552;-59
2022/01/27 08:53:04;;;;;;;4.22;2.72;;;;;;;-3.12;54.39;98690.97;5012243;28;20410;-60
2022/01/27 08:55:30;;;;;;;4.60;3.22;;;;;;;-3.10;54.56;98693.41;5031246;28;20046;-60
2022/01/27 08:57:56;;;;;;;5.55;2.75;;;;;;;-2.93;54.18;98688.97;5030044;28;20120;-61
2022/01/27 09:00:23;;;;;;;5.07;2.97;;;;;;;-2.84;52.90;98680.19;5032359;28;20057;-61
2022/01/27 09:02:48;;;;;;;3.40;2.78;;;;;;;-2.75;53.90;98686.94;5029995;28;20064;-62
2022/01/27 09:05:14;;;;;;;6.32;3.13;;;;;;;-2.70;53.90;98686.47;5030753;28;20045;-63
2022/01/27 09:07:40;;;;;;;7.15;3.35;;;;;;;-2.75;53.77;98690.34;5031096;28;20045;-60
2022/01/27 09:10:06;;;;;;;5.75;3.55;;;;;;;-2.76;53.21;98693.13;5032121;28;20049;-60
2022/01/27 09:12:32;;;;;;;4.45;3.20;;;;;;;-3.05;54.25;98685.94;5030480;28;20106;-61
2022/01/27 09:14:59;;;;;;;4.82;3.50;;;;;;;-2.87;54.51;98686.50;5029548;28;20041;-59
2022/01/27 09:17:26;;;;;;;4.18;2.92;;;;;;;-2.80;53.12;98676.28;5029686;28;20491;-58
2022/01/27 09:19:53;;;;;;;5.43;3.00;;;;;;;-3.14;54.68;98679.16;5030039;28;20060;-58
2022/01/27 09:22:19;;;;;;;4.03;2.88;;;;;;;-3.04;54.54;98688.34;5027973;28;20052;-60
2022/01/27 09:24:57;;;;;;;4.15;3.03;;;;;;;-2.84;54.97;98675.81;5030023;28;20125;-60
2022/01/27 09:27:24;;;;;;;5.93;3.13;;;;;;;-2.76;54.27;98669.78;5029337;28;20052;-59
2022/01/27 09:29:51;;;;;;;4.50;2.80;;;;;;;-2.78;54.01;98675.13;5029331;28;20499;-59
2022/01/27 09:32:18;;;;;;;4.45;2.60;;;;;;;-2.78;53.98;98679.50;5027602;28;20045;-59
2022/01/27 09:34:44;;;;;;;5.82;3.03;;;;;;;-2.77;54.26;98679.31;5028176;28;20081;-57
2022/01/27 09:37:10;;;;;;;5.25;3.38;;;;;;;-2.72;54.47;98676.22;5029440;28;20080;-60
2022/01/27 09:39:36;;;;;;;3.22;2.50;;;;;;;-2.72;54.33;98673.66;5029106;28;20915;-59
2022/01/27 09:42:03;;;;;;;6.88;3.10;;;;;;;-2.47;53.80;98674.34;5026761;28;20048;-55
2022/01/27 09:44:32;;;;;;;7.95;3.13;;;;;;;-2.56;53.59;98670.97;5029286;28;20049;-59
2022/01/27 09:47:04;;;;;;;5.85;2.83;;;;;;;-2.48;53.45;98682.28;5030146;28;20051;-59
2022/01/27 09:49:50;;;;;;;3.28;2.42;;;;;;;-2.53;52.97;98673.22;5030852;28;20055;-59
2022/01/27 09:52:16;;;;;;;7.10;2.90;;;;;;;-2.54;53.19;98683.75;5028866;28;20056;-59
2022/01/27 09:54:45;;;;;;;5.03;2.88;;;;;;;-2.70;53.78;98676.09;5027185;28;20049;-59
2022/01/27 09:57:11;;;;;;;3.85;2.42;;;;;;;-2.69;53.74;98677.69;5027171;28;20115;-61
2022/01/27 09:59:37;;;;;;;4.45;2.78;;;;;;;-2.62;54.37;98683.81;5015542;28;20073;-59
2022/01/27 10:02:06;;;;;;;3.35;2.60;;;;;;;-2.62;54.46;98676.84;5008586;28;20467;-59
2022/01/27 10:04:50;;;;;;;4.93;2.60;;;;;;;-2.48;54.26;98674.50;5007616;28;20490;-61
2022/01/27 10:07:35;;;;;;;7.03;2.60;;;;;;;-2.47;53.69;98669.16;5021002;28;20124;-58
2022/01/27 10:10:05;;;;;;;3.67;2.40;;;;;;;-2.46;53.29;98669.94;5030407;28;20053;-56
2022/01/27 10:12:37;;;;;;;5.78;2.75;;;;;;;-2.55;53.40;98670.00;5010301;28;20049;-58
2022/01/27 10:15:12;;;;;;;5.43;2.50;;;;;;;-2.67;53.98;98663.56;5026397;28;20095;-59
2022/01/27 10:17:42;;;;;;;6.10;2.92;;;;;;;-2.63;54.46;98654.47;5026557;28;20476;-60
2022/01/27 10:20:18;;;;;;;5.28;2.35;;;;;;;-2.42;53.66;98653.03;5025383;28;20037;-60
2022/01/27 10:23:10;;;;;;;5.13;2.70;;;;;;;-2.42;53.21;98656.44;5011447;28;20057;-60
2022/01/27 10:25:46;;;;;;;4.68;2.67;;;;;;;-2.36;53.51;98652.34;5027532;28;20057;-59
2022/01/27 10:31:19;;;;;;;5.75;3.17;;;;;;;-2.19;53.39;98653.84;5028857;28;20548;-59
2022/01/27 10:33:50;;;;;;;3.30;2.97;;;;;;;-2.35;54.53;98641.81;5024455;28;20033;-59
2022/01/27 10:36:16;;;;;;;5.07;2.80;;;;;;;-2.43;53.62;98644.47;5029155;28;20064;-59
2022/01/27 10:38:42;;;;;;;5.40;3.22;;;;;;;-2.49;53.90;98639.97;5027847;28;20053;-61
2022/01/27 10:41:08;;;;;;;4.95;3.20;;;;;;;-2.34;54.72;98650.41;5029448;28;20050;-60
2022/01/27 10:43:34;;;;;;;6.50;3.03;;;;;;;-2.08;53.13;98645.66;5026154;28;20041;-59
2022/01/27 10:46:30;;;;;;;6.97;2.75;;;;;;;-2.30;53.18;98643.88;5027530;28;20553;-61
2022/01/27 10:49:06;;;;;;;5.53;3.03;;;;;;;-2.33;53.20;98637.22;5006339;28;20045;-60
2022/01/27 10:51:42;;;;;;;6.90;3.10;;;;;;;-2.21;53.21;98631.66;5008001;28;20096;-60
2022/01/27 10:54:20;;;;;;;4.30;3.03;;;;;;;-2.24;52.69;98626.81;4992833;28;20065;-61
2022/01/27 10:56:46;;;;;;;5.57;2.90;;;;;;;-2.07;53.35;98623.09;5021291;28;20892;-60
2022/01/27 10:59:17;;;;;;;3.70;3.25;;;;;;;-2.11;52.49;98616.66;5018792;28;20136;-61
2022/01/27 11:01:46;;;;;;;5.13;3.08;;;;;;;-2.26;52.87;98613.19;5026514;28;20029;-61
2022/01/27 11:04:14;;;;;;;4.50;3.28;;;;;;;-2.31;53.28;98616.31;5027707;28;20041;-59
2022/01/27 11:07:17;;;;;;;4.95;3.38;;;;;;;-2.37;53.45;98615.22;5027121;28;20514;-63
2022/01/27 11:09:44;;;;;;;5.38;3.42;;;;;;;-2.34;53.64;98611.47;5020860;28;20057;-60
2022/01/27 11:12:17;;;;;;;7.60;3.60;;;;;;;-2.31;53.67;98616.31;5017662;28;20029;-60
2022/01/27 11:14:51;;;;;;;6.18;3.47;;;;;;;-2.20;52.84;98610.72;5011500;28;20071;-60
2022/01/27 11:17:20;;;;;;;6.00;3.63;;;;;;;-2.28;52.84;98608.19;5028719;28;20041;-60
2022/01/27 11:27:38;;;;;;;5.40;2.78;;;;;;;-2.32;52.36;98589.53;5011918;28;20045;-61
2022/01/27 11:30:07;;;;;;;6.03;2.95;;;;;;;-2.26;52.50;98595.84;5026384;28;20318;-62
2022/01/27 11:32:37;;;;;;;3.53;2.50;;;;;;;-2.33;51.60;98593.09;5028630;28;20034;-62
2022/01/27 11:35:24;;;;;;;5.38;2.70;;;;;;;-2.49;52.33;98582.84;5031189;28;20103;-62
2022/01/27 11:37:51;;;;;;;4.13;2.70;;;;;;;-2.52;51.82;98585.81;5030842;28;20473;-61
2022/01/27 11:40:18;;;;;;;5.60;2.83;;;;;;;-2.63;53.32;98588.78;5030295;28;20054;-61
2022/01/27 11:43:11;;;;;;;6.53;3.28;;;;;;;-2.63;51.70;98581.00;5019381;28;20538;-61
2022/01/27 11:45:41;;;;;;;4.10;2.60;;;;;;;-2.57;52.52;98588.09;5001835;28;20045;-62
2022/01/27 11:48:13;;;;;;;5.93;3.05;;;;;;;-2.57;53.30;98596.69;5031311;28;20037;-64
2022/01/27 11:51:15;;;;;;;6.57;2.90;;;;;;;-2.49;53.09;98589.84;5049514;28;20055;-62
2022/01/27 11:53:45;;;;;;;5.32;3.08;;;;;;;-2.44;53.41;98583.16;5007057;28;20049;-63
2022/01/27 11:56:23;;;;;;;7.28;2.92;;;;;;;-2.59;53.65;98579.66;5030501;28;20076;-63
2022/01/27 11:58:53;;;;;;;6.07;3.22;;;;;;;-2.71;53.25;98579.25;5033069;28;20038;-63
2022/01/27 12:01:23;;;;;;;;;;;;;;;-2.68;53.25;98576.31;5029843;28;20049;-63
2022/01/27 12:04:07;;;;;;;6.78;3.35;;;;;;;-2.94;54.42;98565.47;5031809;28;20349;-61
2022/01/27 12:06:35;;;;;;;4.97;3.25;;;;;;;-2.77;54.68;98569.56;5030441;28;20049;-60
2022/01/27 12:09:22;;;;;;;6.95;3.10;;;;;;;-2.72;54.32;98567.28;5013207;28;20055;-61
2022/01/27 12:11:52;;;;;;;3.83;3.03;;;;;;;-2.83;54.33;98572.84;5030979;28;20041;-61
2022/01/27 12:14:28;;;;;;;5.55;3.22;;;;;;;-2.98;54.66;98571.00;5032940;28;20072;-60
2022/01/27 12:17:09;;;;;;;5.20;3.28;;;;;;;-3.04;55.47;98566.50;5030761;28;20042;-61
2022/01/27 12:19:54;;;;;;;8.90;3.50;;;;;;;-3.20;55.23;98564.00;5032191;28;20052;-61
2022/01/27 12:22:47;;;;;;;5.32;3.55;;;;;;;-2.95;55.82;98577.63;5013470;28;20216;-61
2022/01/27 12:25:13;;;;;;;6.45;3.30;;;;;;;-2.84;55.67;98579.03;5017365;28;20049;-60
2022/01/27 12:27:41;;;;;;;4.32;3.25;;;;;;;-2.69;54.21;98576.50;5003654;28;20037;-60
2022/01/27 12:30:11;;;;;;;4.13;3.20;;;;;;;-2.77;54.03;98575.56;5031311;28;20053;-62
2022/01/27 12:32:38;;;;;;;5.00;3.05;;;;;;;-3.07;55.38;98564.22;5029968;28;20160;-61
2022/01/27 12:35:24;;;;;;;6.28;3.38;;;;;;;-3.12;56.29;98568.31;5027722;28;20058;-62
2022/01/27 12:37:51;;;;;;;5.40;3.30;;;;;;;-3.15;56.16;98564.28;5030326;28;20503;-60
2022/01/27 12:40:25;;;;;;;4.90;3.35;;;;;;;-3.03;55.22;98559.50;4995041;28;20064;-61